Terminal Aerodrome Forecast
Issued by NWS

Home | Current Version | Previous Version | Text Only | Print | Product List | Glossary On
Versions: 1 2 3 4 5 6 7 8 9 10 11 12 13 14
000
FTUS46 KSTO 010500
TAFSMF
TAF
KSMF 010527Z 0106/0206 17005KT P6SM VCSH BKN015 BKN030
      TEMPO 0106/0110 4SM -SHRA SCT015 OVC025
     FM011700 19007KT P6SM VCSH SCT030 BKN060
     FM020100 VRB04KT P6SM SCT250=

USA.gov is the U.S. government's official web portal to all federal, state and local government web resources and services.